Time;durP1;ratioP1;P1;durP2;ratioP2;P2;SDS_P1;SDS_P2;PMS_P1;PMS_P2;Temp;Humidity;BMP_temperature;BMP_pressure;BME280_temperature;BME280_humidity;BME280_pressure;Samples;Min_cycle;Max_cycle;Signal;HPM_P1;HPM_P2
2022/01/26 00:00:07;;;;;;;96.68;44.38;;;4.80;74.80;;;;;;4990367;28;20108;-59
2022/01/26 00:07:52;;;;;;;92.65;42.53;;;4.80;74.80;;;;;;5031571;28;20072;-59
2022/01/26 00:10:18;;;;;;;93.80;43.65;;;4.80;74.80;;;;;;5031404;28;20021;-60
2022/01/26 00:12:44;;;;;;;96.55;44.28;;;4.80;74.90;;;;;;5031420;28;20029;-60
2022/01/26 00:15:10;;;;;;;97.22;42.45;;;4.80;74.80;;;;;;5031510;28;20103;-60
2022/01/26 00:17:36;;;;;;;97.43;44.10;;;4.80;74.80;;;;;;5030942;28;20495;-60
2022/01/26 00:20:14;;;;;;;95.82;44.80;;;4.80;74.80;;;;;;5031563;28;20037;-60
2022/01/26 00:38:41;;;;;;;99.38;44.53;;;4.70;74.70;;;;;;5031598;28;20059;-59
2022/01/26 00:41:21;;;;;;;92.43;42.67;;;4.70;74.80;;;;;;5029976;28;20072;-60
2022/01/26 00:43:54;;;;;;;98.38;43.72;;;4.60;74.80;;;;;;5013311;28;20029;-60
2022/01/26 00:46:21;;;;;;;98.57;42.55;;;4.60;75.00;;;;;;5030871;28;20029;-59
2022/01/26 00:48:47;;;;;;;97.03;43.33;;;4.60;74.90;;;;;;5030426;28;20100;-60
2022/01/26 00:51:19;;;;;;;92.20;40.95;;;4.60;74.70;;;;;;5029019;28;20092;-60
2022/01/26 00:53:48;;;;;;;97.22;42.33;;;4.60;74.80;;;;;;5030515;28;20108;-60
2022/01/26 00:56:14;;;;;;;95.90;43.75;;;4.60;74.70;;;;;;5030500;28;20022;-60
2022/01/26 00:58:40;;;;;;;98.72;43.58;;;4.60;74.70;;;;;;5029105;28;20061;-60
2022/01/26 01:01:06;;;;;;;92.85;40.70;;;4.60;74.60;;;;;;5010551;28;20048;-60
2022/01/26 01:03:37;;;;;;;96.07;43.58;;;4.50;74.50;;;;;;5029397;28;20031;-60
2022/01/26 01:06:20;;;;;;;95.25;42.10;;;4.60;74.70;;;;;;5030382;28;20036;-59
2022/01/26 01:08:46;;;;;;;97.82;42.30;;;4.60;74.60;;;;;;5030213;28;20068;-60
2022/01/26 01:11:13;;;;;;;91.13;40.33;;;4.50;74.60;;;;;;5029563;28;20037;-59
2022/01/26 01:13:41;;;;;;;100.07;43.80;;;4.50;74.70;;;;;;5029948;28;20033;-60
2022/01/26 01:16:11;;;;;;;94.88;40.85;;;4.50;74.60;;;;;;5030071;28;20029;-60
2022/01/26 01:24:18;;;;;;;97.85;41.85;;;4.60;74.70;;;;;;5030019;28;20088;-59
2022/01/26 01:32:10;;;;;;;87.78;38.75;;;4.40;74.60;;;;;;5029763;28;20051;-59
2022/01/26 01:34:38;;;;;;;88.80;39.90;;;4.40;74.80;;;;;;5029988;28;20018;-60
2022/01/26 01:37:07;;;;;;;87.60;39.83;;;4.40;74.90;;;;;;5029602;28;20037;-60
2022/01/26 01:39:33;;;;;;;89.65;39.35;;;4.40;74.90;;;;;;5029445;28;20105;-60
2022/01/26 01:42:00;;;;;;;93.68;40.10;;;4.40;74.80;;;;;;5029242;28;20029;-60
2022/01/26 01:44:26;;;;;;;93.68;40.00;;;4.40;74.90;;;;;;5028459;28;20501;-60
2022/01/26 01:46:53;;;;;;;92.55;40.38;;;4.40;75.00;;;;;;5029000;28;20484;-60
2022/01/26 01:49:19;;;;;;;85.82;37.15;;;4.40;75.00;;;;;;5029518;28;20033;-60
2022/01/26 01:51:52;;;;;;;86.78;36.72;;;4.40;75.00;;;;;;5029444;28;20551;-60
2022/01/26 01:54:19;;;;;;;85.03;37.42;;;4.50;75.00;;;;;;5013050;28;20021;-60
2022/01/26 01:56:56;;;;;;;85.45;38.25;;;4.50;74.70;;;;;;5029246;28;20048;-60
2022/01/26 01:59:27;;;;;;;81.80;36.35;;;4.50;74.70;;;;;;5026709;28;20540;-60
2022/01/26 02:01:54;;;;;;;83.70;37.72;;;4.50;74.80;;;;;;5028764;28;20030;-60
2022/01/26 02:04:20;;;;;;;79.95;36.35;;;4.50;74.90;;;;;;5028971;28;20030;-60
2022/01/26 02:06:46;;;;;;;77.38;36.97;;;4.50;74.90;;;;;;5029365;28;20033;-60
2022/01/26 02:09:12;;;;;;;81.10;37.33;;;4.50;74.80;;;;;;5028794;28;20079;-60
2022/01/26 02:12:14;;;;;;;76.68;34.88;;;4.50;74.80;;;;;;5028647;28;20108;-60
2022/01/26 02:14:45;;;;;;;85.32;38.22;;;4.50;74.70;;;;;;5001660;28;20029;-60
2022/01/26 02:53:14;;;;;;;77.30;35.42;;;4.50;74.80;;;;;;5029509;28;20044;-60
2022/01/26 02:55:47;;;;;;;75.53;34.95;;;4.50;74.80;;;;;;5017566;28;20176;-60
2022/01/26 03:03:38;;;;;;;83.32;35.78;;;4.50;75.00;;;;;;5015131;28;20091;-60
2022/01/26 03:06:09;;;;;;;;;;;4.50;75.10;;;;;;5029568;28;20224;-60
2022/01/26 03:08:40;;;;;;;73.10;34.42;;;4.50;75.00;;;;;;5028660;28;20310;-60
2022/01/26 03:11:09;;;;;;;73.32;33.15;;;4.50;75.10;;;;;;5028540;28;20435;-60
2022/01/26 03:13:38;;;;;;;78.00;36.50;;;4.50;75.20;;;;;;5029013;28;20021;-60
2022/01/26 03:16:12;;;;;;;72.63;35.00;;;4.50;75.10;;;;;;5028815;28;20029;-60
2022/01/26 03:18:54;;;;;;;83.35;38.67;;;4.50;75.10;;;;;;5014397;28;20373;-60
2022/01/26 03:21:49;;;;;;;79.72;35.47;;;4.50;75.00;;;;;;5031988;28;20404;-60
2022/01/26 03:34:32;;;;;;;82.50;38.42;;;4.40;75.30;;;;;;5032729;28;20048;-61
2022/01/26 03:37:04;;;;;;;79.97;36.72;;;4.50;75.40;;;;;;5031438;28;20536;-60
2022/01/26 03:39:30;;;;;;;88.90;38.00;;;4.50;75.40;;;;;;5031571;28;20433;-67
2022/01/26 03:42:05;;;;;;;84.60;38.70;;;4.50;75.40;;;;;;5031609;28;20553;-67
2022/01/26 03:44:31;;;;;;;87.72;39.50;;;4.40;75.40;;;;;;5032411;28;20060;-67
2022/01/26 03:46:57;;;;;;;90.28;39.35;;;4.40;75.50;;;;;;5031399;28;20537;-67
2022/01/26 03:49:22;;;;;;;87.88;40.55;;;4.50;75.50;;;;;;5031251;28;20025;-67
2022/01/26 03:51:48;;;;;;;89.60;38.95;;;4.40;75.50;;;;;;5032101;28;20045;-67
2022/01/26 03:54:16;;;;;;;99.95;44.70;;;4.50;75.70;;;;;;5032174;28;20472;-67
2022/01/26 03:56:42;;;;;;;93.93;42.20;;;4.50;75.60;;;;;;5031240;28;20041;-67
2022/01/26 03:59:09;;;;;;;92.85;41.67;;;4.50;75.60;;;;;;5031234;28;20054;-60
2022/01/26 04:01:35;;;;;;;93.40;42.08;;;4.50;75.60;;;;;;5013696;28;20495;-60
2022/01/26 04:04:02;;;;;;;92.43;43.40;;;4.50;75.50;;;;;;5032163;28;20037;-60
2022/01/26 04:06:29;;;;;;;94.55;41.92;;;4.50;75.50;;;;;;5030996;28;20025;-60
2022/01/26 04:08:55;;;;;;;95.90;42.22;;;4.50;75.60;;;;;;5013278;28;20571;-60
2022/01/26 04:11:38;;;;;;;92.13;42.67;;;4.60;75.70;;;;;;5013010;28;20033;-60
2022/01/26 04:14:11;;;;;;;97.57;44.70;;;4.60;75.50;;;;;;5031438;28;20041;-60
2022/01/26 04:16:38;;;;;;;94.55;42.35;;;4.50;75.60;;;;;;5030814;28;20137;-60
2022/01/26 04:19:05;;;;;;;93.40;41.13;;;4.50;75.90;;;;;;5031371;28;20473;-60
2022/01/26 04:24:17;;;;;;;98.72;44.30;;;4.60;76.00;;;;;;5030033;28;20180;-60
2022/01/26 04:26:55;;;;;;;101.93;44.40;;;4.60;75.60;;;;;;5032735;28;20025;-60
2022/01/26 04:29:27;;;;;;;93.68;44.40;;;4.50;75.40;;;;;;5032804;28;20445;-60
2022/01/26 04:31:53;;;;;;;;;;;4.60;75.80;;;;;;5033084;28;20029;-60
2022/01/26 04:34:19;;;;;;;81.22;38.38;;;4.60;75.90;;;;;;5028173;28;19909;-60
2022/01/26 04:36:54;;;;;;;90.40;42.17;;;4.60;76.10;;;;;;5024265;28;20036;-60
2022/01/26 04:39:34;;;;;;;100.20;43.78;;;4.60;76.10;;;;;;5025396;28;20044;-60
2022/01/26 04:42:12;;;;;;;106.75;46.00;;;4.60;76.00;;;;;;5030540;28;20042;-60
2022/01/26 04:44:47;;;;;;;91.93;42.95;;;4.60;76.10;;;;;;5019528;28;20087;-60
2022/01/26 04:47:13;;;;;;;92.85;42.60;;;4.70;76.30;;;;;;5030521;28;20026;-60
2022/01/26 04:49:38;;;;;;;94.68;42.20;;;4.60;76.40;;;;;;5029670;28;20056;-60
2022/01/26 04:52:04;;;;;;;100.90;44.33;;;4.70;76.50;;;;;;5016129;28;20540;-61
2022/01/26 04:54:30;;;;;;;102.18;45.50;;;4.70;76.40;;;;;;5020170;28;20535;-60
2022/01/26 04:56:56;;;;;;;104.03;47.75;;;4.70;76.50;;;;;;5029348;28;20030;-60
2022/01/26 04:59:21;;;;;;;102.20;47.58;;;4.70;76.70;;;;;;5019090;28;20091;-61
2022/01/26 05:01:47;;;;;;;104.80;46.33;;;4.70;76.70;;;;;;5024526;28;20034;-60
2022/01/26 05:04:13;;;;;;;103.55;47.05;;;4.70;76.30;;;;;;5029091;28;20029;-67
2022/01/26 05:06:39;;;;;;;102.32;45.95;;;4.70;76.30;;;;;;5028178;28;20064;-67
2022/01/26 05:09:04;;;;;;;104.05;47.08;;;4.70;76.40;;;;;;5028762;28;20448;-67
2022/01/26 05:11:37;;;;;;;99.05;45.35;;;4.70;76.40;;;;;;5022204;28;20560;-67
2022/01/26 05:14:04;;;;;;;99.72;47.00;;;4.70;76.50;;;;;;5026286;28;20034;-67
2022/01/26 05:16:30;;;;;;;103.90;45.55;;;4.70;76.50;;;;;;5028952;28;20071;-67
2022/01/26 05:18:56;;;;;;;91.95;42.15;;;4.70;76.60;;;;;;5027491;28;20040;-67
2022/01/26 05:21:23;;;;;;;101.85;47.35;;;4.70;76.70;;;;;;5022287;28;20599;-67
2022/01/26 05:23:49;;;;;;;100.15;44.88;;;4.70;76.70;;;;;;5034140;28;20037;-67
2022/01/26 05:26:15;;;;;;;97.15;45.10;;;4.70;76.60;;;;;;5027728;28;20480;-67
2022/01/26 05:28:41;;;;;;;100.18;44.42;;;4.70;76.70;;;;;;5027959;28;20040;-67
2022/01/26 05:31:07;;;;;;;106.00;47.92;;;4.70;76.80;;;;;;5025003;28;20489;-67
2022/01/26 05:33:33;;;;;;;109.20;49.17;;;4.70;76.60;;;;;;5037007;28;20032;-67
2022/01/26 05:35:58;;;;;;;111.78;49.50;;;4.70;76.70;;;;;;5027791;28;20504;-67
2022/01/26 05:38:24;;;;;;;107.93;47.10;;;4.60;76.80;;;;;;5024238;28;20030;-67
2022/01/26 05:40:51;;;;;;;112.22;48.78;;;4.60;76.80;;;;;;5025494;28;20160;-67
2022/01/26 05:43:17;;;;;;;117.65;51.80;;;4.50;76.80;;;;;;5025044;28;20021;-67
2022/01/26 05:45:48;;;;;;;108.93;49.15;;;4.50;76.80;;;;;;5031349;28;20030;-67
2022/01/26 05:48:14;;;;;;;111.95;48.25;;;4.50;77.00;;;;;;5024742;28;20416;-67
2022/01/26 05:50:49;;;;;;;99.95;44.30;;;4.50;77.10;;;;;;5037564;28;20380;-68
2022/01/26 05:53:16;;;;;;;111.95;49.85;;;4.50;77.10;;;;;;5027041;28;20477;-67
2022/01/26 05:55:42;;;;;;;107.93;48.38;;;4.50;77.10;;;;;;5027589;28;20025;-67
2022/01/26 05:58:07;;;;;;;109.35;49.40;;;4.50;77.20;;;;;;5031222;28;20393;-67
2022/01/26 06:00:33;;;;;;;108.00;47.45;;;4.50;77.20;;;;;;5025660;28;20096;-67
2022/01/26 06:02:59;;;;;;;101.85;45.40;;;4.50;77.30;;;;;;5026439;28;20025;-69
2022/01/26 06:05:24;;;;;;;107.55;47.35;;;4.50;77.30;;;;;;5020889;28;20029;-69
2022/01/26 06:07:50;;;;;;;118.75;51.03;;;4.50;77.30;;;;;;5026484;28;20041;-69
2022/01/26 06:10:16;;;;;;;117.05;51.55;;;4.60;77.20;;;;;;5024694;28;20065;-69
2022/01/26 06:12:42;;;;;;;115.53;51.42;;;4.50;77.10;;;;;;5026448;28;20037;-69
2022/01/26 06:15:08;;;;;;;106.90;47.53;;;4.50;77.10;;;;;;5019215;28;20037;-68
2022/01/26 06:17:34;;;;;;;112.07;48.75;;;4.50;77.20;;;;;;5026211;28;20128;-69
2022/01/26 06:20:00;;;;;;;108.72;48.78;;;4.50;77.20;;;;;;5023350;28;20042;-68
2022/01/26 06:22:26;;;;;;;110.88;46.85;;;4.50;77.20;;;;;;5026468;28;20411;-69
2022/01/26 06:24:54;;;;;;;111.05;49.13;;;4.50;77.30;;;;;;5026688;28;20033;-68
2022/01/26 06:27:19;;;;;;;114.53;49.33;;;4.50;77.30;;;;;;5033769;28;20036;-69
2022/01/26 06:29:45;;;;;;;115.00;50.83;;;4.50;77.40;;;;;;5025121;28;20041;-69
2022/01/26 06:32:11;;;;;;;121.03;52.05;;;4.50;77.30;;;;;;5027815;28;20037;-69
2022/01/26 06:34:39;;;;;;;114.32;50.67;;;4.50;77.20;;;;;;5030126;28;20018;-69
2022/01/26 06:37:06;;;;;;;110.43;48.35;;;4.50;77.20;;;;;;5029099;28;20068;-69
2022/01/26 06:39:32;;;;;;;107.13;47.75;;;4.50;77.30;;;;;;5026689;28;20052;-68
2022/01/26 06:41:58;;;;;;;114.85;49.50;;;4.50;77.40;;;;;;5031326;28;20059;-69
2022/01/26 06:45:13;;;;;;;111.32;48.83;;;4.40;77.30;;;;;;5026582;28;20265;-69
2022/01/26 06:49:38;;;;;;;115.07;50.13;;;4.40;77.60;;;;;;5027772;28;20052;-68
2022/01/26 06:52:04;;;;;;;115.20;50.00;;;4.30;77.60;;;;;;5047373;28;20028;-68
2022/01/26 06:54:30;;;;;;;122.22;52.85;;;4.30;77.80;;;;;;5035632;28;20480;-69
2022/01/26 06:56:55;;;;;;;113.22;50.45;;;4.30;78.00;;;;;;5030617;28;20395;-69
2022/01/26 06:59:23;;;;;;;109.80;48.53;;;4.30;78.00;;;;;;5022157;28;20088;-69
2022/01/26 07:01:49;;;;;;;111.22;48.15;;;4.30;78.10;;;;;;5035882;28;20029;-68
2022/01/26 07:04:14;;;;;;;115.68;50.42;;;4.30;78.20;;;;;;5030256;28;20038;-68
2022/01/26 07:06:40;;;;;;;118.75;52.92;;;4.30;78.30;;;;;;5035218;28;20488;-68
2022/01/26 07:09:06;;;;;;;116.53;49.63;;;4.30;78.40;;;;;;5030494;28;20117;-68
2022/01/26 07:11:32;;;;;;;119.90;51.58;;;4.30;78.50;;;;;;5030704;28;20500;-68
2022/01/26 07:14:00;;;;;;;121.82;52.42;;;4.30;78.60;;;;;;5030316;28;20025;-69
2022/01/26 07:21:54;;;;;;;115.47;50.20;;;4.20;78.70;;;;;;5033307;28;20049;-61
2022/01/26 07:24:19;;;;;;;132.15;53.47;;;4.20;78.80;;;;;;5029997;28;20033;-62
2022/01/26 07:26:46;;;;;;;140.55;57.08;;;4.20;78.90;;;;;;5029466;28;20071;-61
2022/01/26 07:29:13;;;;;;;133.38;57.25;;;4.20;79.10;;;;;;5031765;28;20471;-62
2022/01/26 07:31:42;;;;;;;125.07;52.47;;;4.20;79.10;;;;;;5031801;28;20057;-62
2022/01/26 07:34:13;;;;;;;136.57;57.00;;;4.20;79.20;;;;;;5027018;28;20408;-61
2022/01/26 07:36:39;;;;;;;133.35;55.10;;;4.20;79.30;;;;;;5030176;28;20057;-62
2022/01/26 07:39:12;;;;;;;117.25;51.00;;;4.20;79.30;;;;;;5029994;28;20029;-62
2022/01/26 07:41:38;;;;;;;125.05;53.45;;;4.30;79.40;;;;;;5037363;28;20020;-62
2022/01/26 07:44:04;;;;;;;123.95;50.67;;;4.30;79.40;;;;;;5009808;28;20044;-62
2022/01/26 07:46:30;;;;;;;131.10;55.00;;;4.30;79.40;;;;;;5032007;28;20029;-62
2022/01/26 07:48:56;;;;;;;144.20;57.15;;;4.30;79.50;;;;;;5036809;28;20075;-62
2022/01/26 07:51:22;;;;;;;132.02;54.47;;;4.30;79.60;;;;;;5029264;28;20022;-62
2022/01/26 07:53:48;;;;;;;128.48;52.45;;;4.20;79.70;;;;;;5023088;28;20487;-62
2022/01/26 07:56:14;;;;;;;131.70;51.80;;;4.20;79.90;;;;;;5042581;28;20021;-62
2022/01/26 07:58:41;;;;;;;152.48;56.63;;;4.20;80.00;;;;;;5028871;28;20121;-62
2022/01/26 08:01:07;;;;;;;143.05;57.55;;;4.20;80.30;;;;;;5036566;28;20072;-62
2022/01/26 08:03:33;;;;;;;139.55;54.53;;;4.20;80.70;;;;;;5040124;28;20488;-62
2022/01/26 08:06:03;;;;;;;126.07;52.00;;;4.20;80.80;;;;;;5042715;28;20043;-62
2022/01/26 08:08:30;;;;;;;129.60;52.08;;;4.20;80.90;;;;;;5009048;28;20041;-61
2022/01/26 08:10:56;;;;;;;140.98;54.80;;;4.20;80.90;;;;;;5028752;28;20029;-61
2022/01/26 08:13:23;;;;;;;130.20;52.88;;;4.20;81.10;;;;;;5023141;28;20022;-61
2022/01/26 08:15:48;;;;;;;137.95;54.70;;;4.10;81.30;;;;;;5028226;28;20025;-61
2022/01/26 08:18:14;;;;;;;129.02;51.30;;;4.10;81.60;;;;;;5037607;28;20141;-61
2022/01/26 08:20:40;;;;;;;137.68;54.03;;;4.20;81.70;;;;;;5032619;28;20456;-61
2022/01/26 08:23:06;;;;;;;130.50;52.10;;;4.10;81.70;;;;;;5033391;28;20026;-61
2022/01/26 08:25:32;;;;;;;126.97;49.92;;;4.10;81.90;;;;;;5029306;28;20056;-61
2022/01/26 08:28:23;;;;;;;144.15;53.13;;;4.20;82.00;;;;;;5039487;28;20473;-61
2022/01/26 08:30:47;;;;;;;158.20;58.17;;;4.20;82.30;;;;;;5027498;28;20085;-61
2022/01/26 08:33:13;;;;;;;141.32;54.88;;;4.10;82.60;;;;;;5033318;28;20060;-61
2022/01/26 08:35:41;;;;;;;133.15;51.42;;;4.10;82.70;;;;;;5036404;28;20057;-61
2022/01/26 08:38:06;;;;;;;133.68;51.63;;;4.10;82.80;;;;;;5033169;28;20107;-61
2022/01/26 08:40:33;;;;;;;135.80;53.53;;;4.10;82.90;;;;;;5017297;28;20479;-61
2022/01/26 08:43:00;;;;;;;137.27;53.58;;;4.20;83.00;;;;;;5029013;28;20065;-62
2022/01/26 08:45:26;;;;;;;138.15;55.72;;;4.20;83.20;;;;;;5031651;28;20546;-61
2022/01/26 08:47:52;;;;;;;132.77;53.30;;;4.20;83.30;;;;;;5025526;28;20503;-61
2022/01/26 08:50:19;;;;;;;132.10;51.30;;;4.20;83.40;;;;;;5032319;28;20038;-61
2022/01/26 08:52:44;;;;;;;135.68;53.72;;;4.20;83.50;;;;;;5027157;28;20079;-61
2022/01/26 08:55:10;;;;;;;151.13;55.42;;;4.10;83.60;;;;;;5027474;28;20033;-60
2022/01/26 08:57:37;;;;;;;141.13;54.10;;;4.20;83.90;;;;;;5026957;28;20552;-61
2022/01/26 09:00:07;;;;;;;151.90;57.58;;;4.10;84.00;;;;;;5029463;28;20056;-61
2022/01/26 09:02:33;;;;;;;134.73;51.42;;;4.20;84.30;;;;;;5026521;28;20497;-61
2022/01/26 09:04:59;;;;;;;116.53;48.50;;;4.20;84.20;;;;;;5027780;28;20042;-61
2022/01/26 09:07:24;;;;;;;127.72;52.22;;;4.20;84.30;;;;;;5027916;28;20443;-61
2022/01/26 09:09:50;;;;;;;130.02;50.90;;;4.20;84.30;;;;;;5031394;28;20120;-61
2022/01/26 09:12:18;;;;;;;136.02;51.65;;;4.20;84.30;;;;;;5040167;28;20095;-61
2022/01/26 09:14:45;;;;;;;136.07;53.22;;;4.20;84.20;;;;;;5025901;28;20029;-61
2022/01/26 09:17:12;;;;;;;129.48;51.17;;;4.20;84.40;;;;;;5024916;28;20051;-61
2022/01/26 09:19:41;;;;;;;138.90;53.67;;;4.30;85.00;;;;;;5026661;28;20035;-61
2022/01/26 09:22:11;;;;;;;136.30;53.03;;;4.30;84.60;;;;;;5027547;28;20037;-61
2022/01/26 09:24:39;;;;;;;128.70;52.30;;;4.30;84.60;;;;;;5028088;28;20387;-61
2022/01/26 09:27:06;;;;;;;134.48;54.00;;;4.30;84.60;;;;;;5032977;28;20029;-61
2022/01/26 09:29:33;;;;;;;126.63;49.85;;;4.30;84.70;;;;;;5028013;28;20041;-61
2022/01/26 09:31:59;;;;;;;136.15;55.20;;;4.30;84.70;;;;;;5037778;28;20022;-61
2022/01/26 09:34:28;;;;;;;139.90;54.33;;;4.30;84.90;;;;;;5032989;28;20026;-61
2022/01/26 09:36:54;;;;;;;141.38;54.42;;;4.30;85.00;;;;;;5033182;28;20333;-61
2022/01/26 09:39:21;;;;;;;120.30;51.28;;;4.30;85.00;;;;;;5034011;28;20338;-61
2022/01/26 09:41:50;;;;;;;121.43;49.05;;;4.30;85.00;;;;;;5037545;28;20033;-61
2022/01/26 09:44:17;;;;;;;119.53;50.22;;;4.30;85.10;;;;;;5034602;28;20492;-61
2022/01/26 09:46:44;;;;;;;108.82;45.83;;;4.40;85.00;;;;;;5028255;28;20480;-61
2022/01/26 09:49:11;;;;;;;126.78;51.17;;;4.40;85.00;;;;;;5028302;28;20041;-61
2022/01/26 09:51:43;;;;;;;116.78;50.25;;;4.50;85.00;;;;;;5021677;28;20113;-61
2022/01/26 09:54:14;;;;;;;123.15;50.75;;;4.40;84.80;;;;;;5048391;28;20020;-61
2022/01/26 09:56:40;;;;;;;119.75;50.58;;;4.50;84.90;;;;;;5038331;28;20013;-61
2022/01/26 09:59:06;;;;;;;116.75;49.28;;;4.50;84.80;;;;;;5027912;28;20029;-61
2022/01/26 10:01:49;;;;;;;114.40;47.72;;;4.50;84.70;;;;;;5025633;28;20091;-61
2022/01/26 10:04:27;;;;;;;121.10;51.17;;;4.50;84.70;;;;;;5028072;28;20040;-61
2022/01/26 10:18:07;;;;;;;113.38;48.17;;;4.50;84.70;;;;;;5016336;28;20570;-61
2022/01/26 10:20:41;;;;;;;116.22;48.38;;;4.50;84.70;;;;;;5022118;28;20041;-61
2022/01/26 10:23:12;;;;;;;106.80;46.47;;;4.60;84.80;;;;;;5033727;28;20108;-61
2022/01/26 10:25:40;;;;;;;99.45;44.60;;;4.60;84.80;;;;;;5030143;28;20496;-60
2022/01/26 10:28:09;;;;;;;103.30;45.15;;;4.60;84.80;;;;;;5030681;28;20061;-61
2022/01/26 10:30:35;;;;;;;108.32;47.63;;;4.60;84.70;;;;;;5015851;28;20076;-61
2022/01/26 10:33:08;;;;;;;96.70;43.63;;;4.70;84.70;;;;;;5033180;28;20424;-61
2022/01/26 10:35:34;;;;;;;93.75;43.22;;;4.70;84.80;;;;;;5030791;28;20034;-61
2022/01/26 10:38:00;;;;;;;108.60;48.53;;;4.70;84.70;;;;;;5031296;28;20076;-61
2022/01/26 10:40:27;;;;;;;96.07;44.88;;;4.70;84.70;;;;;;5033392;28;20113;-61
2022/01/26 10:43:14;;;;;;;83.05;41.60;;;4.70;84.40;;;;;;5031046;28;20405;-61
2022/01/26 10:46:01;;;;;;;91.13;43.42;;;4.70;84.20;;;;;;5032026;28;20034;-61
2022/01/26 10:49:03;;;;;;;87.75;40.95;;;4.70;83.90;;;;;;5027630;28;20404;-61
2022/01/26 10:51:52;;;;;;;82.18;40.95;;;4.60;83.90;;;;;;5030351;28;20067;-60
2022/01/26 10:56:50;;;;;;;75.35;37.38;;;4.60;83.30;;;;;;5030870;28;20032;-61
2022/01/26 10:59:17;;;;;;;81.70;40.35;;;4.60;83.40;;;;;;5032248;28;20033;-61
2022/01/26 11:01:43;;;;;;;75.82;39.28;;;4.60;83.40;;;;;;5024411;28;20277;-61
2022/01/26 11:04:09;;;;;;;76.10;36.53;;;4.70;83.40;;;;;;5028112;28;20152;-60
2022/01/26 11:06:37;;;;;;;80.85;38.35;;;4.70;83.40;;;;;;5027225;28;20037;-60
2022/01/26 11:09:11;;;;;;;78.55;37.33;;;4.80;83.10;;;;;;5029394;28;20033;-60
2022/01/26 11:11:40;;;;;;;73.57;36.88;;;4.80;83.00;;;;;;5031142;28;20021;-61
2022/01/26 11:14:22;;;;;;;68.82;36.30;;;4.80;82.90;;;;;;5029116;28;20037;-74
2022/01/26 11:16:53;;;;;;;72.47;36.67;;;4.80;82.90;;;;;;5009481;28;20509;-74
2022/01/26 11:19:20;;;;;;;67.73;33.60;;;4.80;82.80;;;;;;5026085;28;20075;-75
2022/01/26 11:21:45;;;;;;;73.65;36.97;;;4.80;82.70;;;;;;5011797;28;20042;-73
2022/01/26 11:24:23;;;;;;;72.35;37.50;;;4.90;82.60;;;;;;5012733;28;20552;-74
2022/01/26 11:27:03;;;;;;;70.18;34.55;;;4.90;82.50;;;;;;5003959;28;20465;-73
2022/01/26 11:29:34;;;;;;;63.55;33.47;;;4.80;82.50;;;;;;5028298;28;20033;-73
2022/01/26 11:32:08;;;;;;;67.00;32.78;;;4.90;82.60;;;;;;5022788;28;20392;-72
2022/01/26 11:34:35;;;;;;;68.47;32.72;;;4.90;82.60;;;;;;5026898;28;20022;-72
2022/01/26 11:37:05;;;;;;;70.28;35.00;;;4.90;82.60;;;;;;5013821;28;20046;-73
2022/01/26 11:45:15;;;;;;;59.55;31.35;;;5.00;82.50;;;;;;5027978;28;20068;-73
2022/01/26 11:48:02;;;;;;;64.18;30.83;;;5.00;82.60;;;;;;5026588;28;20065;-73
2022/01/26 11:50:29;;;;;;;61.22;31.00;;;5.00;82.60;;;;;;5025365;28;20511;-73
2022/01/26 11:53:03;;;;;;;61.22;31.13;;;5.10;82.60;;;;;;5027360;28;20040;-72
2022/01/26 11:55:44;;;;;;;64.38;31.23;;;5.10;82.60;;;;;;5027115;28;20481;-72
2022/01/26 11:58:29;;;;;;;62.47;30.60;;;5.10;82.60;;;;;;5025903;28;20042;-73
2022/01/26 12:03:42;;;;;;;65.30;30.85;;;5.20;82.40;;;;;;5026592;28;20461;-72
2022/01/26 12:06:14;;;;;;;64.50;29.88;;;5.20;82.50;;;;;;5029342;28;20104;-73
2022/01/26 12:08:39;;;;;;;61.53;30.63;;;5.20;82.60;;;;;;5028933;28;20038;-75
2022/01/26 12:11:12;;;;;;;58.38;30.55;;;5.10;82.50;;;;;;5012140;28;20056;-72
2022/01/26 12:13:40;;;;;;;64.28;33.08;;;5.20;82.70;;;;;;5030636;28;20040;-72
2022/01/26 12:16:17;;;;;;;64.85;31.83;;;5.20;82.50;;;;;;5009800;28;20333;-72
2022/01/26 12:18:59;;;;;;;64.50;31.33;;;5.20;82.50;;;;;;5029518;28;20032;-72
2022/01/26 12:43:44;;;;;;;67.40;31.42;;;5.30;82.90;;;;;;5026195;28;20134;-73
2022/01/26 12:46:34;;;;;;;67.38;30.70;;;5.30;83.00;;;;;;5020376;28;20094;-73
2022/01/26 12:49:09;;;;;;;66.95;32.92;;;5.30;83.10;;;;;;5004571;28;20053;-73
2022/01/26 12:51:44;;;;;;;72.35;34.20;;;5.30;83.10;;;;;;5011169;28;20096;-72
2022/01/26 12:54:10;;;;;;;72.70;35.22;;;5.40;83.00;;;;;;5003708;28;20030;-73
2022/01/26 12:56:36;;;;;;;63.80;31.85;;;5.30;83.10;;;;;;5028868;28;20507;-72
2022/01/26 12:59:07;;;;;;;75.90;35.55;;;5.30;83.20;;;;;;5010853;28;20029;-73
2022/01/26 13:01:34;;;;;;;66.60;33.90;;;5.30;83.70;;;;;;5029099;28;20498;-73
2022/01/26 13:04:03;;;;;;;69.32;33.88;;;5.30;83.20;;;;;;5023926;28;20104;-73
2022/01/26 13:06:32;;;;;;;68.03;33.67;;;5.30;83.30;;;;;;5011335;28;20034;-72
2022/01/26 13:08:59;;;;;;;75.70;36.65;;;5.30;83.40;;;;;;5028874;28;20030;-73
2022/01/26 13:11:26;;;;;;;69.10;35.05;;;5.40;83.40;;;;;;5026599;28;20096;-73
2022/01/26 13:14:18;;;;;;;70.00;35.13;;;5.50;83.30;;;;;;5031185;28;20431;-73
2022/01/26 13:17:09;;;;;;;67.82;34.30;;;5.40;83.20;;;;;;5010477;28;20374;-73
2022/01/26 13:19:55;;;;;;;73.85;35.20;;;5.50;83.20;;;;;;5019162;28;20029;-72
2022/01/26 13:22:55;;;;;;;70.95;34.58;;;5.40;83.30;;;;;;5008101;28;20482;-72
2022/01/26 13:28:36;;;;;;;70.03;33.95;;;5.40;83.40;;;;;;5029290;28;20034;-73
2022/01/26 13:36:58;;;;;;;61.00;32.80;;;5.40;83.60;;;;;;5028115;28;20032;-73
2022/01/26 13:45:09;;;;;;;60.30;30.88;;;5.40;83.60;;;;;;5013082;28;20071;-72
2022/01/26 13:53:17;;;;;;;58.10;32.15;;;5.50;83.60;;;;;;5025727;28;20028;-73
2022/01/26 13:55:57;;;;;;;63.80;31.77;;;5.50;83.50;;;;;;5009938;28;20048;-72
2022/01/26 14:01:04;;;;;;;61.88;31.90;;;5.50;83.50;;;;;;5009891;28;20076;-72
2022/01/26 14:03:33;;;;;;;66.78;33.10;;;5.60;83.60;;;;;;4994375;28;20064;-73
2022/01/26 14:05:59;;;;;;;61.15;32.08;;;5.50;83.60;;;;;;5021809;28;20392;-72
2022/01/26 14:08:25;;;;;;;55.47;29.88;;;5.50;83.70;;;;;;5009334;28;20030;-73
2022/01/26 14:10:51;;;;;;;61.90;30.48;;;5.60;83.80;;;;;;5008062;28;20408;-73
2022/01/26 14:13:21;;;;;;;60.53;32.17;;;5.60;83.70;;;;;;5004170;28;20029;-73
2022/01/26 14:15:50;;;;;;;60.25;33.13;;;5.60;83.60;;;;;;5022012;28;20018;-73
2022/01/26 14:25:44;;;;;;;59.45;32.38;;;5.60;83.50;;;;;;5009114;28;20029;-72
2022/01/26 14:28:12;;;;;;;66.70;33.65;;;5.60;83.50;;;;;;5026661;28;20060;-72
2022/01/26 14:35:56;;;;;;;60.90;30.60;;;5.50;83.50;;;;;;5028931;28;20120;-72
2022/01/26 15:43:34;;;;;;;59.05;29.48;;;5.60;84.60;;;;;;5018058;28;20036;-73
2022/01/26 15:51:11;;;;;;;56.75;30.30;;;5.60;84.70;;;;;;5026229;28;20069;-72
2022/01/26 15:59:20;;;;;;;55.95;31.38;;;5.70;84.70;;;;;;5017571;28;20558;-73
2022/01/26 16:04:56;;;;;;;57.00;29.33;;;5.60;84.80;;;;;;5016676;28;20136;-72
2022/01/26 16:07:27;;;;;;;55.95;30.45;;;5.70;84.70;;;;;;5029932;28;20033;-73
2022/01/26 18:33:02;;;;;;;81.18;42.58;;;5.40;84.70;;;;;;5028272;28;20275;-72
2022/01/26 18:52:01;;;;;;;79.85;42.50;;;5.40;84.40;;;;;;4938901;29;20040;-72
2022/01/26 18:54:35;;;;;;;78.45;42.40;;;5.40;84.50;;;;;;5009429;28;20077;-72
2022/01/26 18:57:04;;;;;;;81.82;42.97;;;5.40;84.50;;;;;;5030081;28;20013;-72
2022/01/26 18:59:29;;;;;;;78.95;41.58;;;5.40;84.40;;;;;;5031643;28;20496;-72
2022/01/26 19:01:57;;;;;;;80.90;41.25;;;5.40;84.50;;;;;;5032167;28;20018;-72
2022/01/26 19:04:28;;;;;;;89.22;44.55;;;5.40;84.50;;;;;;5035240;28;20034;-72
2022/01/26 19:06:55;;;;;;;81.67;41.40;;;5.40;84.50;;;;;;5022915;28;20095;-72
2022/01/26 19:09:47;;;;;;;82.47;42.38;;;5.30;84.40;;;;;;5029038;28;20130;-71
2022/01/26 19:12:15;;;;;;;81.60;41.67;;;5.30;84.50;;;;;;5006346;28;20116;-72
2022/01/26 19:14:48;;;;;;;82.28;41.72;;;5.30;85.10;;;;;;5030666;28;20595;-71
2022/01/26 19:17:23;;;;;;;85.85;41.28;;;5.30;84.40;;;;;;5013242;28;20029;-71
2022/01/26 19:20:14;;;;;;;91.40;45.97;;;5.30;84.40;;;;;;5023345;28;20038;-71
2022/01/26 19:22:54;;;;;;;84.22;41.85;;;5.30;84.30;;;;;;5032256;28;20025;-76
2022/01/26 19:27:59;;;;;;;91.78;43.75;;;5.20;84.40;;;;;;5024407;28;20033;-76
2022/01/26 19:52:10;;;;;;;87.60;41.78;;;5.20;84.60;;;;;;5020250;28;20049;-76
2022/01/26 19:54:40;;;;;;;81.50;39.97;;;5.20;84.50;;;;;;5025648;28;20029;-76
2022/01/26 19:57:08;;;;;;;75.35;37.45;;;5.20;84.50;;;;;;5013261;28;20026;-77
2022/01/26 19:59:40;;;;;;;75.40;37.25;;;5.20;84.60;;;;;;5027143;28;20048;-76
2022/01/26 20:02:06;;;;;;;87.93;38.50;;;5.20;84.60;;;;;;5012638;28;20172;-76